createdAt,value
2022-12-14T00:00:05.581Z,0.00
2022-12-14T00:01:05.539Z,0.00
2022-12-14T00:02:05.640Z,0.00
2022-12-14T00:03:05.661Z,0.00
2022-12-14T00:04:05.515Z,0.00
2022-12-14T00:05:05.569Z,0.00
2022-12-14T00:06:05.523Z,0.00
2022-12-14T00:07:05.647Z,0.00
2022-12-14T00:08:05.483Z,0.00
2022-12-14T00:09:05.480Z,0.00
2022-12-14T00:10:05.457Z,0.00
2022-12-14T00:11:05.550Z,0.00
2022-12-14T00:12:05.440Z,0.00
2022-12-14T00:13:05.452Z,0.00
2022-12-14T00:14:05.411Z,0.00
2022-12-14T00:15:05.442Z,0.00
2022-12-14T00:16:05.420Z,0.00
2022-12-14T00:17:05.399Z,0.00
2022-12-14T00:18:05.451Z,0.00
2022-12-14T00:19:05.443Z,0.00
2022-12-14T00:20:05.399Z,0.00
2022-12-14T00:21:05.355Z,0.00
2022-12-14T00:22:05.340Z,0.00
2022-12-14T00:23:05.339Z,0.00
2022-12-14T00:24:05.380Z,0.00
2022-12-14T00:25:05.328Z,0.00
2022-12-14T00:26:05.304Z,0.00
2022-12-14T00:27:05.296Z,0.00
2022-12-14T00:28:05.342Z,0.00
2022-12-14T00:29:05.306Z,0.00
2022-12-14T00:30:05.282Z,0.00
2022-12-14T00:31:05.356Z,0.00
2022-12-14T00:32:05.272Z,0.00
2022-12-14T00:33:05.277Z,0.00
2022-12-14T00:34:05.235Z,0.00
2022-12-14T00:35:05.325Z,0.00
2022-12-14T00:36:05.226Z,0.00
2022-12-14T00:37:05.241Z,0.00
2022-12-14T00:38:05.197Z,0.00
2022-12-14T00:39:05.218Z,0.00
2022-12-14T00:40:05.180Z,0.00
2022-12-14T00:41:05.165Z,0.00
2022-12-14T00:42:05.172Z,0.00
2022-12-14T00:43:05.194Z,0.00
2022-12-14T00:44:05.157Z,0.00
2022-12-14T00:45:05.164Z,0.00
2022-12-14T00:46:05.361Z,0.00
2022-12-14T00:47:05.162Z,0.00
2022-12-14T00:48:05.152Z,0.00
2022-12-14T00:49:05.119Z,0.00
2022-12-14T00:50:05.119Z,0.00
2022-12-14T00:51:05.093Z,0.00
2022-12-14T00:52:05.068Z,0.00
2022-12-14T00:53:05.138Z,0.00
2022-12-14T00:54:05.065Z,0.00
2022-12-14T00:55:05.095Z,0.00
2022-12-14T00:56:05.198Z,0.00
2022-12-14T00:57:05.044Z,0.00
2022-12-14T00:58:05.042Z,0.00
2022-12-14T00:59:05.018Z,0.00
2022-12-14T01:00:04.990Z,0.00
2022-12-14T01:01:05.034Z,0.00
2022-12-14T01:02:05.120Z,0.00
2022-12-14T01:03:04.973Z,0.00
2022-12-14T01:04:05.109Z,0.00
2022-12-14T01:05:04.960Z,0.00
2022-12-14T01:06:04.953Z,0.00
2022-12-14T01:07:04.941Z,0.00
2022-12-14T01:08:04.962Z,0.00
2022-12-14T01:09:04.929Z,0.00
2022-12-14T01:10:04.974Z,0.00
2022-12-14T01:11:04.942Z,0.00
2022-12-14T01:12:04.901Z,0.00
2022-12-14T01:13:04.875Z,0.00
2022-12-14T01:14:04.887Z,0.00
2022-12-14T01:15:04.876Z,0.00
2022-12-14T01:16:04.947Z,0.00
2022-12-14T01:17:04.859Z,0.00
2022-12-14T01:18:04.876Z,0.00
2022-12-14T01:19:04.843Z,0.00
2022-12-14T01:20:04.827Z,0.00
2022-12-14T01:21:04.818Z,0.00
2022-12-14T01:22:04.801Z,0.00
2022-12-14T01:23:04.796Z,0.00
2022-12-14T01:24:04.808Z,0.00
2022-12-14T01:25:04.785Z,0.00
2022-12-14T01:26:04.803Z,0.00
2022-12-14T01:27:04.757Z,0.00
2022-12-14T01:28:04.738Z,0.00
2022-12-14T01:29:04.745Z,0.00
2022-12-14T01:30:04.822Z,0.00
2022-12-14T01:31:04.826Z,0.00
2022-12-14T01:32:04.736Z,0.00
2022-12-14T01:33:04.696Z,0.00
2022-12-14T01:34:04.725Z,0.00
2022-12-14T01:35:04.676Z,0.00
2022-12-14T01:36:04.673Z,0.00
2022-12-14T01:37:04.680Z,0.00
2022-12-14T01:38:04.676Z,0.00
2022-12-14T01:39:04.647Z,0.00
2022-12-14T01:40:04.648Z,0.00
2022-12-14T01:41:04.637Z,0.00
2022-12-14T01:42:04.619Z,0.00
2022-12-14T01:43:04.622Z,0.00
2022-12-14T01:44:04.636Z,0.00
2022-12-14T01:45:04.604Z,0.00
2022-12-14T01:46:04.635Z,0.00
2022-12-14T01:47:10.553Z,0.00
2022-12-14T01:48:04.567Z,0.00
2022-12-14T01:49:04.548Z,0.00
2022-12-14T01:50:04.600Z,0.00
2022-12-14T01:51:04.523Z,0.00
2022-12-14T01:52:04.560Z,0.00
2022-12-14T01:53:04.527Z,0.00
2022-12-14T01:54:04.532Z,0.00
2022-12-14T01:55:04.554Z,0.00
2022-12-14T01:56:04.499Z,0.00
2022-12-14T01:57:04.495Z,0.00
2022-12-14T01:58:04.507Z,0.00
2022-12-14T01:59:04.493Z,0.00
2022-12-14T02:00:07.330Z,0.00
2022-12-14T02:02:22.160Z,0.00
2022-12-14T02:03:23.066Z,0.00
2022-12-14T02:04:23.022Z,0.00
2022-12-14T02:05:23.069Z,0.00
2022-12-14T02:06:23.122Z,0.00
2022-12-14T02:07:23.003Z,0.00
2022-12-14T02:08:22.980Z,0.00
2022-12-14T02:09:22.980Z,0.00
2022-12-14T02:10:22.962Z,0.00
2022-12-14T02:11:22.996Z,0.00
2022-12-14T02:12:22.981Z,0.00
2022-12-14T02:13:22.950Z,0.00
2022-12-14T02:14:22.931Z,0.00
2022-12-14T02:15:22.988Z,0.00
2022-12-14T02:16:22.963Z,0.00
2022-12-14T02:17:22.907Z,0.00
2022-12-14T02:18:22.975Z,0.00
2022-12-14T02:19:22.906Z,0.00
2022-12-14T02:20:22.886Z,0.00
2022-12-14T02:21:22.872Z,0.00
2022-12-14T02:22:22.871Z,0.00
2022-12-14T02:23:22.888Z,0.00
2022-12-14T02:24:22.840Z,0.00
2022-12-14T02:25:22.835Z,0.00
2022-12-14T02:26:22.815Z,0.00
2022-12-14T02:27:22.811Z,0.00
2022-12-14T02:28:22.833Z,0.00
2022-12-14T02:29:22.796Z,0.00
2022-12-14T02:30:22.811Z,0.00
2022-12-14T02:31:22.825Z,0.00
2022-12-14T02:32:22.760Z,0.00
2022-12-14T02:33:22.755Z,0.00
2022-12-14T02:34:22.777Z,0.00
2022-12-14T02:35:22.773Z,0.00
2022-12-14T02:36:22.734Z,0.00
2022-12-14T02:37:22.748Z,0.00
2022-12-14T02:38:22.732Z,0.00
2022-12-14T02:39:22.703Z,0.00
2022-12-14T02:40:22.695Z,0.00
2022-12-14T02:41:22.704Z,0.00
2022-12-14T02:42:22.690Z,0.00
2022-12-14T02:43:22.756Z,0.00
2022-12-14T02:44:22.686Z,0.00
2022-12-14T02:45:22.642Z,0.00
2022-12-14T02:46:22.788Z,0.00
2022-12-14T02:47:22.636Z,0.00
2022-12-14T02:48:22.651Z,0.00
2022-12-14T02:49:22.639Z,0.00
2022-12-14T02:50:22.621Z,0.00
2022-12-14T02:51:22.602Z,0.00
2022-12-14T02:52:22.607Z,0.00
2022-12-14T02:53:22.592Z,0.00
2022-12-14T02:54:22.648Z,0.00
2022-12-14T02:55:22.556Z,0.00
2022-12-14T02:56:22.560Z,0.00
2022-12-14T02:57:22.553Z,0.00
2022-12-14T02:58:22.559Z,0.00
2022-12-14T02:59:22.512Z,0.00
2022-12-14T03:00:22.515Z,0.00
2022-12-14T03:01:22.674Z,0.00
2022-12-14T03:02:22.756Z,0.00
2022-12-14T03:03:22.481Z,0.00
2022-12-14T03:04:22.491Z,0.00
2022-12-14T03:05:22.467Z,0.00
2022-12-14T03:06:22.469Z,0.00
2022-12-14T03:07:22.474Z,0.00
2022-12-14T03:08:22.436Z,0.00
2022-12-14T03:09:22.439Z,0.00
2022-12-14T03:10:22.430Z,0.00
2022-12-14T03:11:22.436Z,0.00
2022-12-14T03:12:22.408Z,0.00
2022-12-14T03:13:22.425Z,0.00
2022-12-14T03:14:22.407Z,0.00
2022-12-14T03:15:22.377Z,0.00
2022-12-14T03:16:22.449Z,0.00
2022-12-14T03:17:22.371Z,0.00
2022-12-14T03:18:22.360Z,0.00
2022-12-14T03:19:22.361Z,0.00
2022-12-14T03:20:22.366Z,0.00
2022-12-14T03:21:22.329Z,0.00
2022-12-14T03:22:22.325Z,0.00
2022-12-14T03:23:22.318Z,0.00
2022-12-14T03:24:22.318Z,0.00
2022-12-14T03:25:22.346Z,0.00
2022-12-14T03:26:22.281Z,0.00
2022-12-14T03:27:22.266Z,0.00
2022-12-14T03:28:22.261Z,0.00
2022-12-14T03:29:22.249Z,0.00
2022-12-14T03:30:51.346Z,0.00
2022-12-14T03:31:22.293Z,0.00
2022-12-14T03:32:22.227Z,0.00
2022-12-14T03:33:22.233Z,0.00
2022-12-14T03:34:22.210Z,0.00
2022-12-14T03:35:22.201Z,0.00
2022-12-14T03:36:22.199Z,0.00
2022-12-14T03:37:22.172Z,0.00
2022-12-14T03:38:22.166Z,0.00
2022-12-14T03:39:22.165Z,0.00
2022-12-14T03:40:22.145Z,0.00
2022-12-14T03:41:22.150Z,0.00
2022-12-14T03:42:22.141Z,0.00
2022-12-14T03:43:22.121Z,0.00
2022-12-14T03:44:22.169Z,0.00
2022-12-14T03:45:22.117Z,0.00
2022-12-14T03:46:22.099Z,0.00
2022-12-14T03:47:22.103Z,0.00
2022-12-14T03:48:22.076Z,0.00
2022-12-14T03:49:22.074Z,0.00
2022-12-14T03:50:22.053Z,0.00
2022-12-14T03:51:22.046Z,0.00
2022-12-14T03:52:22.049Z,0.00
2022-12-14T03:53:22.053Z,0.00
2022-12-14T03:54:22.036Z,0.00
2022-12-14T03:55:22.021Z,0.00
2022-12-14T03:56:22.028Z,0.00
2022-12-14T03:57:22.035Z,0.00
2022-12-14T03:58:21.985Z,0.00
2022-12-14T03:59:21.997Z,0.00
2022-12-14T04:00:21.974Z,0.00
2022-12-14T04:01:22.125Z,0.00
2022-12-14T04:02:22.079Z,0.00
2022-12-14T04:03:22.024Z,0.00
2022-12-14T04:04:21.936Z,0.00
2022-12-14T04:05:21.918Z,0.00
2022-12-14T04:06:21.910Z,0.00
2022-12-14T04:07:21.916Z,0.00
2022-12-14T04:08:21.900Z,0.00
2022-12-14T04:09:21.879Z,0.00
2022-12-14T04:10:21.877Z,0.00
2022-12-14T04:11:21.881Z,0.00
2022-12-14T04:12:21.945Z,0.00
2022-12-14T04:13:21.849Z,0.00
2022-12-14T04:14:21.866Z,0.00
2022-12-14T04:15:21.837Z,0.00
2022-12-14T04:16:21.886Z,0.00
2022-12-14T04:17:21.832Z,0.00
2022-12-14T04:18:21.805Z,0.00
2022-12-14T04:19:21.826Z,0.00
2022-12-14T04:20:21.794Z,0.00
2022-12-14T04:21:21.784Z,0.00
2022-12-14T04:22:21.770Z,0.00
2022-12-14T04:23:21.779Z,0.00
2022-12-14T04:24:21.761Z,0.00
2022-12-14T04:25:21.750Z,0.00
2022-12-14T04:26:21.749Z,0.00
2022-12-14T04:27:21.723Z,0.00
2022-12-14T04:28:21.722Z,0.00
2022-12-14T04:29:21.700Z,0.00
2022-12-14T04:30:21.706Z,0.00
2022-12-14T04:31:21.780Z,0.00
2022-12-14T04:32:21.807Z,0.00
2022-12-14T04:33:21.714Z,0.00
2022-12-14T04:34:21.656Z,0.00
2022-12-14T04:35:21.659Z,0.00
2022-12-14T04:36:21.638Z,0.00
2022-12-14T04:37:21.628Z,0.00
2022-12-14T04:38:21.659Z,0.00
2022-12-14T04:39:21.628Z,0.00
2022-12-14T04:40:21.614Z,0.00
2022-12-14T04:41:21.600Z,0.00
2022-12-14T04:42:21.582Z,0.00
2022-12-14T04:43:21.582Z,0.00
2022-12-14T04:44:21.575Z,0.00
2022-12-14T04:45:21.582Z,0.00
2022-12-14T04:46:21.584Z,0.00
2022-12-14T04:47:21.536Z,0.00
2022-12-14T04:48:21.567Z,0.00
2022-12-14T04:49:21.543Z,0.00
2022-12-14T04:50:21.529Z,0.00
2022-12-14T04:51:21.549Z,0.00
2022-12-14T04:52:21.520Z,0.00
2022-12-14T04:53:21.494Z,0.00
2022-12-14T04:54:21.475Z,0.00
2022-12-14T04:55:21.485Z,0.00
2022-12-14T04:56:21.473Z,0.00
2022-12-14T04:57:21.444Z,0.00
2022-12-14T04:58:21.454Z,0.00
2022-12-14T04:59:21.461Z,0.00
2022-12-14T05:00:21.426Z,0.00
2022-12-14T05:01:21.503Z,0.00
2022-12-14T05:02:21.567Z,0.00
2022-12-14T05:03:21.396Z,0.00
2022-12-14T05:04:21.421Z,0.00
2022-12-14T05:05:21.373Z,0.00
2022-12-14T05:06:21.411Z,0.00
2022-12-14T05:07:21.394Z,0.00
2022-12-14T05:08:21.380Z,0.00
2022-12-14T05:09:21.377Z,0.00
2022-12-14T05:10:21.335Z,0.00
2022-12-14T05:11:52.072Z,0.00
2022-12-14T05:12:21.326Z,0.00
2022-12-14T05:13:21.300Z,0.00
2022-12-14T05:14:21.311Z,0.00
2022-12-14T05:15:21.327Z,0.00
2022-12-14T05:16:21.371Z,0.00
2022-12-14T05:17:21.272Z,0.00
2022-12-14T05:18:21.282Z,0.00
2022-12-14T05:19:21.268Z,0.00
2022-12-14T05:20:21.269Z,0.00
2022-12-14T05:21:21.232Z,0.00
2022-12-14T05:22:21.242Z,0.00
2022-12-14T05:23:21.211Z,0.00
2022-12-14T05:24:21.226Z,0.00
2022-12-14T05:25:21.200Z,0.00
2022-12-14T05:26:21.197Z,0.00
2022-12-14T05:27:21.176Z,0.00
2022-12-14T05:28:21.230Z,0.00
2022-12-14T05:29:21.171Z,0.00
2022-12-14T05:30:21.208Z,0.00
2022-12-14T05:31:21.140Z,0.00
2022-12-14T05:32:21.134Z,0.00
2022-12-14T05:33:21.121Z,0.00
2022-12-14T05:34:21.137Z,0.00
2022-12-14T05:35:21.099Z,0.00
2022-12-14T05:36:21.096Z,0.00
2022-12-14T05:37:21.097Z,0.00
2022-12-14T05:38:21.088Z,0.00
2022-12-14T05:39:21.065Z,0.00
2022-12-14T05:40:21.085Z,0.00
2022-12-14T05:41:21.047Z,0.00
2022-12-14T05:42:20.057Z,0.00
2022-12-14T05:43:21.038Z,0.00
2022-12-14T05:44:21.035Z,0.00
2022-12-14T05:45:21.036Z,0.00
2022-12-14T05:46:21.079Z,0.00
2022-12-14T05:47:21.004Z,0.00
2022-12-14T05:48:21.012Z,0.00
2022-12-14T05:49:21.009Z,0.00
2022-12-14T05:50:21.021Z,0.00
2022-12-14T05:51:20.954Z,0.00
2022-12-14T05:52:20.985Z,0.00
2022-12-14T05:53:20.960Z,0.00
2022-12-14T05:54:20.957Z,0.00
2022-12-14T05:55:20.922Z,0.00
2022-12-14T05:56:20.934Z,0.00
2022-12-14T05:57:20.908Z,0.00
2022-12-14T05:58:20.919Z,0.00
2022-12-14T05:59:20.935Z,0.00
2022-12-14T06:00:20.890Z,0.00
2022-12-14T06:01:20.885Z,0.00
2022-12-14T06:02:20.970Z,0.00
2022-12-14T06:03:20.850Z,0.00
2022-12-14T06:04:20.956Z,0.00
2022-12-14T06:05:20.838Z,0.00
2022-12-14T06:06:20.830Z,0.00
2022-12-14T06:07:27.311Z,0.00
2022-12-14T06:08:20.815Z,0.00
2022-12-14T06:09:20.795Z,0.00
2022-12-14T06:10:20.792Z,0.00
2022-12-14T06:11:20.820Z,0.00
2022-12-14T06:12:20.765Z,0.00
2022-12-14T06:13:20.769Z,0.00
2022-12-14T06:14:20.756Z,0.00
2022-12-14T06:15:20.784Z,0.00
2022-12-14T06:16:20.810Z,0.00
2022-12-14T06:17:20.748Z,0.00
2022-12-14T06:18:20.723Z,0.00
2022-12-14T06:19:20.730Z,0.00
2022-12-14T06:20:20.729Z,0.00
2022-12-14T06:21:20.692Z,0.00
2022-12-14T06:22:20.679Z,0.00
2022-12-14T06:23:20.687Z,0.00
2022-12-14T06:24:20.711Z,0.00
2022-12-14T06:25:20.666Z,0.00
2022-12-14T06:26:20.602Z,0.00
2022-12-14T06:27:20.631Z,0.00
2022-12-14T06:28:20.666Z,0.00
2022-12-14T06:29:20.620Z,0.00
2022-12-14T06:30:20.642Z,0.00
2022-12-14T06:31:20.671Z,0.00
2022-12-14T06:32:20.603Z,0.00
2022-12-14T06:33:20.538Z,0.00
2022-12-14T06:34:24.980Z,0.00
2022-12-14T06:35:20.535Z,0.00
2022-12-14T06:36:20.553Z,0.00
2022-12-14T06:37:20.556Z,0.00
2022-12-14T06:38:20.497Z,0.00
2022-12-14T06:39:20.488Z,0.00
2022-12-14T06:40:20.516Z,0.00
2022-12-14T06:41:20.465Z,0.00
2022-12-14T06:42:20.460Z,0.00
2022-12-14T06:43:20.440Z,0.00
2022-12-14T06:44:20.449Z,0.00
2022-12-14T06:45:20.434Z,0.00
2022-12-14T06:46:20.528Z,0.00
2022-12-14T06:47:20.399Z,0.00
2022-12-14T06:48:20.403Z,0.00
2022-12-14T06:49:20.380Z,0.00
2022-12-14T06:50:20.429Z,0.00
2022-12-14T06:51:20.378Z,0.00
2022-12-14T06:52:26.464Z,0.00
2022-12-14T06:53:20.385Z,0.00
2022-12-14T06:54:20.366Z,0.00
2022-12-14T06:55:20.328Z,0.00
2022-12-14T06:56:20.338Z,0.00
2022-12-14T06:57:20.303Z,0.00
2022-12-14T06:58:20.317Z,0.00
2022-12-14T06:59:20.292Z,0.00
2022-12-14T07:00:20.297Z,0.00
2022-12-14T07:01:20.398Z,0.00
2022-12-14T07:02:20.473Z,0.00
2022-12-14T07:03:20.292Z,0.00
2022-12-14T07:04:20.280Z,5.62
2022-12-14T07:05:20.235Z,5.62
2022-12-14T07:06:20.225Z,5.62
2022-12-14T07:07:20.317Z,5.62
2022-12-14T07:08:20.285Z,5.62
2022-12-14T07:09:20.209Z,5.62
2022-12-14T07:10:20.186Z,5.62
2022-12-14T07:11:20.184Z,5.62
2022-12-14T07:12:20.296Z,5.62
2022-12-14T07:13:20.193Z,5.62
2022-12-14T07:14:20.171Z,5.62
2022-12-14T07:15:20.158Z,11.25
2022-12-14T07:16:20.284Z,11.25
2022-12-14T07:17:20.311Z,16.88
2022-12-14T07:18:20.112Z,16.88
2022-12-14T07:19:20.140Z,22.50
2022-12-14T07:20:20.102Z,22.50
2022-12-14T07:21:20.114Z,22.50
2022-12-14T07:22:20.372Z,28.12
2022-12-14T07:23:23.439Z,28.12
2022-12-14T07:24:20.078Z,33.75
2022-12-14T07:25:20.069Z,33.75
2022-12-14T07:26:20.064Z,39.38
2022-12-14T07:27:20.234Z,39.38
2022-12-14T07:28:20.023Z,39.38
2022-12-14T07:29:20.048Z,45.00
2022-12-14T07:30:20.015Z,45.00
2022-12-14T07:31:20.058Z,50.62
2022-12-14T07:32:20.297Z,45.00
2022-12-14T07:33:19.991Z,45.00
2022-12-14T07:34:19.983Z,45.00
2022-12-14T07:35:19.985Z,45.00
2022-12-14T07:36:19.956Z,45.00
2022-12-14T07:37:20.347Z,39.38
2022-12-14T07:38:19.964Z,39.38
2022-12-14T07:39:19.927Z,39.38
2022-12-14T07:40:19.977Z,39.38
2022-12-14T07:41:22.621Z,39.38
2022-12-14T07:42:19.898Z,39.38
2022-12-14T07:43:19.919Z,39.38
2022-12-14T07:44:19.880Z,39.38
2022-12-14T07:45:19.899Z,39.38
2022-12-14T07:46:20.032Z,39.38
2022-12-14T07:47:19.862Z,45.00
2022-12-14T07:48:19.885Z,50.62
2022-12-14T07:49:19.838Z,61.88
2022-12-14T07:50:19.825Z,73.12
2022-12-14T07:51:19.837Z,84.38
2022-12-14T07:52:19.829Z,95.62
2022-12-14T07:53:19.801Z,106.88
2022-12-14T07:54:19.918Z,112.50
2022-12-14T07:55:19.788Z,112.50
2022-12-14T07:56:19.766Z,101.25
2022-12-14T07:57:19.827Z,90.00
2022-12-14T07:58:19.770Z,84.38
2022-12-14T07:59:19.740Z,84.38
2022-12-14T08:00:19.747Z,84.38
2022-12-14T08:01:19.836Z,78.75
2022-12-14T08:02:19.878Z,78.75
2022-12-14T08:03:19.707Z,73.12
2022-12-14T08:04:19.759Z,67.50
2022-12-14T08:05:19.723Z,67.50
2022-12-14T08:06:19.721Z,67.50
2022-12-14T08:07:19.710Z,61.88
2022-12-14T08:08:19.662Z,67.50
2022-12-14T08:09:19.655Z,67.50
2022-12-14T08:10:19.690Z,73.12
2022-12-14T08:11:19.639Z,78.75
2022-12-14T08:12:19.622Z,78.75
2022-12-14T08:13:19.656Z,78.75
2022-12-14T08:14:19.666Z,84.38
2022-12-14T08:15:19.601Z,78.75
2022-12-14T08:16:19.709Z,73.12
2022-12-14T08:17:19.730Z,67.50
2022-12-14T08:18:19.579Z,67.50
2022-12-14T08:19:19.565Z,73.12
2022-12-14T08:20:19.548Z,73.12
2022-12-14T08:21:19.549Z,73.12
2022-12-14T08:22:19.544Z,73.12
2022-12-14T08:23:19.560Z,78.75
2022-12-14T08:24:19.530Z,78.75
2022-12-14T08:25:19.559Z,78.75
2022-12-14T08:26:19.508Z,73.12
2022-12-14T08:27:19.519Z,73.12
2022-12-14T08:28:19.485Z,67.50
2022-12-14T08:29:19.475Z,73.12
2022-12-14T08:30:19.485Z,78.75
2022-12-14T08:31:19.548Z,84.38
2022-12-14T08:32:19.480Z,90.00
2022-12-14T08:33:19.431Z,95.62
2022-12-14T08:34:19.448Z,95.62
2022-12-14T08:35:19.426Z,101.25
2022-12-14T08:36:19.426Z,95.62
2022-12-14T08:37:19.453Z,84.38
2022-12-14T08:38:19.387Z,78.75
2022-12-14T08:39:19.396Z,73.12
2022-12-14T08:40:19.374Z,61.88
2022-12-14T08:41:19.390Z,56.25
2022-12-14T08:42:19.354Z,56.25
2022-12-14T08:43:24.838Z,56.25
2022-12-14T08:44:19.349Z,56.25
2022-12-14T08:45:19.359Z,61.88
2022-12-14T08:46:19.387Z,67.50
2022-12-14T08:47:19.314Z,78.75
2022-12-14T08:48:19.292Z,90.00
2022-12-14T08:49:19.314Z,90.00
2022-12-14T08:50:19.303Z,84.38
2022-12-14T08:51:19.274Z,90.00
2022-12-14T08:52:19.275Z,95.62
2022-12-14T08:53:19.281Z,95.62
2022-12-14T08:54:19.303Z,101.25
2022-12-14T08:55:23.903Z,101.25
2022-12-14T08:56:19.257Z,101.25
2022-12-14T08:57:19.242Z,106.88
2022-12-14T08:58:19.258Z,112.50
2022-12-14T08:59:44.015Z,118.12
2022-12-14T09:00:19.208Z,118.12
2022-12-14T09:01:19.255Z,118.12
2022-12-14T09:02:19.284Z,118.12
2022-12-14T09:03:19.244Z,118.12
2022-12-14T09:04:19.193Z,118.12
2022-12-14T09:05:19.310Z,118.12
2022-12-14T09:06:19.132Z,123.75
2022-12-14T09:07:19.133Z,123.75
2022-12-14T09:08:19.120Z,129.38
2022-12-14T09:09:19.123Z,129.38
2022-12-14T09:10:19.102Z,129.38
2022-12-14T09:11:19.149Z,129.38
2022-12-14T09:12:19.163Z,129.38
2022-12-14T09:13:19.083Z,135.00
2022-12-14T09:14:19.081Z,146.25
2022-12-14T09:15:19.062Z,146.25
2022-12-14T09:16:19.069Z,140.62
2022-12-14T09:17:19.056Z,135.00
2022-12-14T09:18:19.036Z,135.00
2022-12-14T09:19:19.035Z,129.38
2022-12-14T09:20:19.056Z,129.38
2022-12-14T09:21:19.034Z,129.38
2022-12-14T09:22:19.042Z,129.38
2022-12-14T09:23:18.981Z,135.00
2022-12-14T09:24:18.995Z,135.00
2022-12-14T09:25:18.958Z,140.62
2022-12-14T09:26:18.946Z,146.25
2022-12-14T09:27:18.952Z,151.88
2022-12-14T09:28:18.943Z,151.88
2022-12-14T09:29:19.040Z,151.88
2022-12-14T09:30:23.284Z,151.88
2022-12-14T09:31:19.002Z,168.75
2022-12-14T09:32:18.971Z,180.00
2022-12-14T09:33:18.899Z,185.62
2022-12-14T09:34:18.892Z,196.88
2022-12-14T09:35:18.863Z,196.88
2022-12-14T09:36:18.883Z,191.25
2022-12-14T09:37:18.870Z,185.62
2022-12-14T09:38:18.834Z,180.00
2022-12-14T09:39:18.830Z,174.38
2022-12-14T09:40:18.868Z,174.38
2022-12-14T09:41:18.844Z,185.62
2022-12-14T09:42:18.816Z,196.88
2022-12-14T09:43:18.809Z,202.50
2022-12-14T09:44:19.197Z,202.50
2022-12-14T09:45:18.778Z,202.50
2022-12-14T09:46:18.828Z,208.12
2022-12-14T09:47:18.781Z,202.50
2022-12-14T09:48:18.749Z,202.50
2022-12-14T09:49:18.757Z,185.62
2022-12-14T09:50:18.733Z,174.38
2022-12-14T09:51:18.767Z,168.75
2022-12-14T09:52:18.742Z,168.75
2022-12-14T09:53:18.701Z,157.50
2022-12-14T09:54:18.708Z,157.50
2022-12-14T09:55:18.693Z,157.50
2022-12-14T09:56:18.677Z,163.12
2022-12-14T09:57:18.683Z,157.50
2022-12-14T09:58:18.669Z,151.88
2022-12-14T09:59:18.682Z,140.62
2022-12-14T10:00:18.716Z,140.62
2022-12-14T10:01:18.712Z,140.62
2022-12-14T10:02:34.465Z,140.62
2022-12-14T10:03:18.753Z,140.62
2022-12-14T10:04:18.796Z,140.62
2022-12-14T10:05:18.601Z,146.25
2022-12-14T10:06:18.604Z,146.25
2022-12-14T10:07:18.617Z,146.25
2022-12-14T10:08:18.576Z,146.25
2022-12-14T10:09:18.577Z,151.88
2022-12-14T10:10:18.600Z,157.50
2022-12-14T10:11:18.545Z,180.00
2022-12-14T10:12:18.535Z,202.50
2022-12-14T10:13:18.616Z,236.25
2022-12-14T10:14:18.520Z,253.12
2022-12-14T10:15:18.500Z,253.12
2022-12-14T10:16:18.519Z,253.12
2022-12-14T10:17:18.526Z,247.50
2022-12-14T10:18:49.567Z,230.62
2022-12-14T10:19:18.465Z,219.38
2022-12-14T10:20:18.549Z,213.75
2022-12-14T10:21:18.439Z,196.88
2022-12-14T10:22:18.442Z,180.00
2022-12-14T10:23:22.727Z,174.38
2022-12-14T10:24:18.413Z,174.38
2022-12-14T10:25:18.424Z,168.75
2022-12-14T10:26:18.392Z,163.12
2022-12-14T10:27:18.400Z,157.50
2022-12-14T10:28:18.381Z,163.12
2022-12-14T10:29:18.394Z,174.38
2022-12-14T10:30:18.396Z,208.12
2022-12-14T10:31:18.375Z,241.88
2022-12-14T10:32:18.381Z,270.00
2022-12-14T10:33:18.384Z,281.25
2022-12-14T10:34:18.342Z,286.88
2022-12-14T10:35:18.313Z,281.25
2022-12-14T10:36:18.298Z,275.62
2022-12-14T10:37:18.291Z,270.00
2022-12-14T10:38:18.297Z,270.00
2022-12-14T10:39:18.279Z,270.00
2022-12-14T10:40:29.170Z,253.12
2022-12-14T10:41:18.283Z,241.88
2022-12-14T10:42:18.246Z,241.88
2022-12-14T10:43:18.246Z,236.25
2022-12-14T10:44:18.292Z,219.38
2022-12-14T10:46:17.238Z,208.12
2022-12-14T10:47:18.224Z,180.00
2022-12-14T10:48:18.183Z,157.50
2022-12-14T10:49:18.222Z,146.25
2022-12-14T10:50:18.173Z,146.25
2022-12-14T10:51:18.158Z,146.25
2022-12-14T10:52:18.150Z,146.25
2022-12-14T10:53:18.151Z,151.88
2022-12-14T10:54:18.247Z,157.50
2022-12-14T10:55:18.139Z,168.75
2022-12-14T10:56:18.214Z,168.75
2022-12-14T10:57:18.135Z,180.00
2022-12-14T10:58:18.100Z,191.25
2022-12-14T10:59:18.111Z,202.50
2022-12-14T11:00:22.839Z,208.12
2022-12-14T11:01:18.148Z,208.12
2022-12-14T11:02:18.287Z,196.88
2022-12-14T11:03:18.085Z,196.88
2022-12-14T11:04:18.053Z,191.25
2022-12-14T11:05:18.060Z,191.25
2022-12-14T11:06:18.031Z,185.62
2022-12-14T11:07:18.016Z,185.62
2022-12-14T11:08:18.052Z,191.25
2022-12-14T11:09:17.988Z,191.25
2022-12-14T11:10:18.008Z,208.12
2022-12-14T11:11:19.369Z,219.38
2022-12-14T11:12:18.034Z,225.00
2022-12-14T11:13:17.959Z,236.25
2022-12-14T11:14:17.964Z,241.88
2022-12-14T11:15:17.926Z,236.25
2022-12-14T11:16:17.982Z,219.38
2022-12-14T11:17:18.065Z,202.50
2022-12-14T11:18:18.170Z,180.00
2022-12-14T11:19:17.899Z,168.75
2022-12-14T11:20:17.916Z,168.75
2022-12-14T11:21:17.876Z,180.00
2022-12-14T11:22:22.241Z,185.62
2022-12-14T11:23:17.875Z,191.25
2022-12-14T11:24:17.883Z,191.25
2022-12-14T11:25:17.854Z,208.12
2022-12-14T11:26:17.839Z,230.62
2022-12-14T11:27:17.825Z,253.12
2022-12-14T11:28:17.829Z,270.00
2022-12-14T11:29:17.827Z,275.62
2022-12-14T11:30:17.834Z,275.62
2022-12-14T11:31:17.868Z,275.62
2022-12-14T11:32:17.790Z,264.38
2022-12-14T11:33:17.759Z,247.50
2022-12-14T11:34:21.818Z,236.25
2022-12-14T11:35:17.753Z,225.00
2022-12-14T11:36:17.739Z,219.38
2022-12-14T11:37:17.733Z,219.38
2022-12-14T11:38:17.772Z,196.88
2022-12-14T11:39:17.698Z,185.62
2022-12-14T11:40:17.689Z,168.75
2022-12-14T11:41:17.681Z,151.88
2022-12-14T11:42:17.690Z,135.00
2022-12-14T11:43:17.674Z,118.12
2022-12-14T11:44:17.685Z,112.50
2022-12-14T11:45:17.713Z,118.12
2022-12-14T11:46:17.656Z,112.50
2022-12-14T11:47:17.663Z,112.50
2022-12-14T11:48:17.626Z,129.38
2022-12-14T11:49:17.627Z,135.00
2022-12-14T11:50:17.621Z,163.12
2022-12-14T11:51:17.592Z,168.75
2022-12-14T11:52:17.580Z,191.25
2022-12-14T11:53:17.575Z,191.25
2022-12-14T11:54:17.564Z,191.25
2022-12-14T11:55:23.003Z,180.00
2022-12-14T11:56:17.552Z,185.62
2022-12-14T11:57:17.583Z,208.12
2022-12-14T11:58:17.546Z,196.88
2022-12-14T11:59:17.577Z,185.62
2022-12-14T12:00:17.519Z,191.25
2022-12-14T12:01:17.572Z,180.00
2022-12-14T12:02:17.573Z,185.62
2022-12-14T12:03:17.611Z,168.75
2022-12-14T12:04:17.480Z,174.38
2022-12-14T12:05:17.511Z,168.75
2022-12-14T12:06:17.498Z,174.38
2022-12-14T12:07:17.455Z,168.75
2022-12-14T12:08:17.452Z,180.00
2022-12-14T12:09:17.415Z,180.00
2022-12-14T12:10:17.484Z,185.62
2022-12-14T12:11:17.415Z,180.00
2022-12-14T12:12:17.393Z,191.25
2022-12-14T12:13:17.394Z,191.25
2022-12-14T12:14:17.399Z,180.00
2022-12-14T12:15:17.379Z,191.25
2022-12-14T12:16:17.435Z,213.75
2022-12-14T12:17:17.369Z,202.50
2022-12-14T12:18:17.355Z,225.00
2022-12-14T12:19:17.330Z,247.50
2022-12-14T12:20:17.372Z,258.75
2022-12-14T12:21:17.305Z,247.50
2022-12-14T12:22:17.323Z,270.00
2022-12-14T12:23:17.282Z,292.50
2022-12-14T12:24:17.306Z,281.25
2022-12-14T12:25:26.685Z,292.50
2022-12-14T12:26:17.276Z,315.00
2022-12-14T12:27:17.285Z,326.25
2022-12-14T12:28:17.309Z,365.62
2022-12-14T12:29:17.236Z,348.75
2022-12-14T12:30:17.226Z,320.62
2022-12-14T12:31:17.234Z,320.62
2022-12-14T12:32:17.242Z,331.88
2022-12-14T12:33:17.201Z,309.38
2022-12-14T12:34:17.199Z,292.50
2022-12-14T12:35:17.179Z,303.75
2022-12-14T12:36:23.361Z,298.12
2022-12-14T12:37:26.372Z,315.00
2022-12-14T12:38:17.178Z,298.12
2022-12-14T12:39:17.165Z,298.12
2022-12-14T12:40:17.124Z,298.12
2022-12-14T12:41:17.119Z,298.12
2022-12-14T12:42:17.119Z,286.88
2022-12-14T12:43:17.213Z,281.25
2022-12-14T12:44:17.095Z,270.00
2022-12-14T12:45:17.085Z,241.88
2022-12-14T12:46:17.151Z,219.38
2022-12-14T12:47:32.061Z,196.88
2022-12-14T12:48:17.085Z,185.62
2022-12-14T12:49:17.058Z,174.38
2022-12-14T12:50:17.058Z,180.00
2022-12-14T12:51:17.030Z,168.75
2022-12-14T12:52:17.138Z,168.75
2022-12-14T12:53:17.002Z,168.75
2022-12-14T12:54:17.059Z,174.38
2022-12-14T12:55:17.011Z,174.38
2022-12-14T12:56:17.001Z,180.00
2022-12-14T12:57:16.986Z,185.62
2022-12-14T12:58:16.964Z,191.25
2022-12-14T12:59:16.949Z,191.25
2022-12-14T13:00:16.938Z,185.62